TimeEDT,TemperatureF,Dew PointF,Humidity,Sea Level PressureIn,VisibilityMPH,Wind Direction,Wind SpeedMPH,Gust SpeedMPH,PrecipitationIn,Events,Conditions,WindDirDegrees,DateUTC
12:15 AM,57.2,55.4,94,29.85,7.0,South,4.6,-,N/A,,Overcast,180,2012-10-06 04:15:00
12:35 AM,57.2,55.4,94,29.84,5.0,SSW,4.6,-,N/A,,Overcast,200,2012-10-06 04:35:00
12:55 AM,57.2,55.4,94,29.83,2.5,South,3.5,-,N/A,,Overcast,190,2012-10-06 04:55:00
1:15 AM,57.2,55.4,94,29.83,2.0,South,5.8,-,N/A,,Overcast,190,2012-10-06 05:15:00
1:35 AM,57.2,55.4,94,29.83,1.5,South,5.8,-,N/A,,Overcast,190,2012-10-06 05:35:00
1:55 AM,57.2,55.4,94,29.82,1.5,SSW,4.6,-,N/A,,Overcast,200,2012-10-06 05:55:00
2:15 AM,57.2,55.4,94,29.82,1.2,South,3.5,-,N/A,,Overcast,190,2012-10-06 06:15:00
2:55 AM,57.2,55.4,94,29.80,0.8,SSW,3.5,-,N/A,,Overcast,200,2012-10-06 06:55:00
3:15 AM,57.2,55.4,94,29.81,0.8,SSW,5.8,-,N/A,,Overcast,200,2012-10-06 07:15:00
3:35 AM,57.2,55.4,94,29.80,0.5,South,3.5,-,N/A,,Overcast,190,2012-10-06 07:35:00
3:55 AM,57.2,55.4,94,29.80,0.5,Calm,Calm,-,N/A,,Overcast,0,2012-10-06 07:55:00
4:15 AM,-9999,-9999,N/A,29.79,0.5,Calm,Calm,-,N/A,,Overcast,0,2012-10-06 08:15:00
4:35 AM,-9999,-9999,N/A,29.79,0.8,Calm,Calm,-,N/A,,Overcast,0,2012-10-06 08:35:00
4:55 AM,57.2,55.4,94,29.79,1.2,Calm,Calm,-,N/A,,Overcast,0,2012-10-06 08:55:00
5:35 AM,57.2,55.4,94,29.78,1.0,Calm,Calm,-,N/A,,Overcast,0,2012-10-06 09:35:00
5:55 AM,-9999,-9999,N/A,29.78,1.5,Calm,Calm,-,N/A,,Overcast,0,2012-10-06 09:55:00
6:15 AM,57.2,55.4,94,29.78,2.5,Calm,Calm,-,N/A,,Overcast,0,2012-10-06 10:15:00
6:35 AM,57.2,55.4,94,29.77,1.8,Calm,Calm,-,N/A,,Overcast,0,2012-10-06 10:35:00
6:55 AM,57.2,55.4,94,29.76,1.0,Calm,Calm,-,N/A,,Overcast,0,2012-10-06 10:55:00
7:15 AM,57.2,55.4,94,29.76,0.8,Calm,Calm,-,N/A,,Overcast,0,2012-10-06 11:15:00
7:35 AM,57.2,55.4,94,29.76,1.2,SSW,3.5,-,N/A,,Overcast,200,2012-10-06 11:35:00
7:55 AM,57.2,55.4,94,29.76,2.5,South,3.5,-,N/A,,Overcast,190,2012-10-06 11:55:00
8:15 AM,57.2,57.2,100,29.76,2.5,South,3.5,-,N/A,,Overcast,190,2012-10-06 12:15:00
8:35 AM,57.2,57.2,100,29.75,3.0,South,3.5,-,N/A,,Overcast,170,2012-10-06 12:35:00
8:55 AM,59.0,57.2,94,29.75,7.0,South,3.5,-,N/A,,Scattered Clouds,180,2012-10-06 12:55:00
9:15 AM,60.8,57.2,88,29.74,10.0,South,4.6,-,N/A,,Scattered Clouds,180,2012-10-06 13:15:00
9:35 AM,62.6,57.2,82,29.74,10.0,South,5.8,-,N/A,,Partly Cloudy,180,2012-10-06 13:35:00
10:15 AM,62.6,57.2,82,29.74,10.0,SSW,5.8,-,N/A,,Clear,200,2012-10-06 14:15:00
10:35 AM,64.4,59.0,83,29.73,10.0,South,6.9,-,N/A,,Clear,180,2012-10-06 14:35:00
10:55 AM,66.2,60.8,83,29.72,10.0,South,4.6,-,N/A,,Partly Cloudy,190,2012-10-06 14:55:00
11:15 AM,68.0,60.8,78,29.72,10.0,South,8.1,-,N/A,,Partly Cloudy,180,2012-10-06 15:15:00
11:35 AM,69.8,60.8,73,29.70,10.0,South,8.1,18.4,N/A,,Scattered Clouds,180,2012-10-06 15:35:00
11:55 AM,69.8,60.8,73,29.69,10.0,South,8.1,-,N/A,,Partly Cloudy,190,2012-10-06 15:55:00
12:15 PM,-9999,-9999,N/A,29.67,10.0,SSW,9.2,18.4,N/A,,Clear,200,2012-10-06 16:15:00
12:35 PM,-9999,-9999,N/A,29.66,10.0,South,11.5,18.4,N/A,,Clear,190,2012-10-06 16:35:00
12:55 PM,-9999,-9999,N/A,29.65,10.0,South,10.4,20.7,N/A,,Clear,190,2012-10-06 16:55:00
1:15 PM,71.6,57.2,60,29.64,10.0,South,10.4,19.6,N/A,,Clear,190,2012-10-06 17:15:00
1:35 PM,71.6,57.2,60,29.63,10.0,South,10.4,23.0,N/A,,Clear,180,2012-10-06 17:35:00
1:55 PM,-9999,-9999,N/A,29.62,10.0,South,12.7,20.7,N/A,,Clear,180,2012-10-06 17:55:00
2:15 PM,-9999,-9999,N/A,29.61,10.0,South,12.7,23.0,N/A,,Clear,190,2012-10-06 18:15:00
2:35 PM,69.8,57.2,64,29.62,10.0,South,10.4,19.6,N/A,,Clear,190,2012-10-06 18:35:00
2:55 PM,-9999,-9999,N/A,29.61,10.0,South,10.4,21.9,N/A,,Clear,190,2012-10-06 18:55:00
3:15 PM,69.8,57.2,64,29.61,10.0,South,10.4,19.6,N/A,,Clear,190,2012-10-06 19:15:00
3:35 PM,69.8,57.2,64,29.61,10.0,South,12.7,21.9,N/A,,Clear,180,2012-10-06 19:35:00
3:55 PM,68.0,57.2,68,29.60,10.0,South,10.4,19.6,N/A,,Clear,190,2012-10-06 19:55:00
4:15 PM,68.0,57.2,68,29.60,10.0,South,9.2,19.6,N/A,,Clear,180,2012-10-06 20:15:00
4:35 PM,68.0,59.0,73,29.59,10.0,South,11.5,17.3,N/A,,Partly Cloudy,180,2012-10-06 20:35:00
4:55 PM,66.2,59.0,78,29.59,10.0,South,10.4,16.1,N/A,,Partly Cloudy,190,2012-10-06 20:55:00
5:15 PM,66.2,57.2,73,29.62,10.0,WSW,10.4,17.3,N/A,,Mostly Cloudy,240,2012-10-06 21:15:00
5:35 PM,57.2,51.8,82,29.65,8.0,NW,18.4,26.5,N/A,,Mostly Cloudy,320,2012-10-06 21:35:00
5:55 PM,55.4,51.8,88,29.66,5.0,NW,17.3,25.3,N/A,,Mostly Cloudy,320,2012-10-06 21:55:00
6:15 PM,55.4,48.2,77,29.68,10.0,NW,13.8,21.9,N/A,,Overcast,310,2012-10-06 22:15:00
6:35 PM,53.6,48.2,82,29.69,10.0,NW,9.2,16.1,N/A,,Overcast,320,2012-10-06 22:35:00
6:55 PM,55.4,46.4,72,29.70,10.0,NW,10.4,17.3,N/A,,Overcast,310,2012-10-06 22:55:00
7:15 PM,53.6,46.4,77,29.72,10.0,NW,10.4,-,N/A,,Overcast,310,2012-10-06 23:15:00
7:35 PM,53.6,46.4,77,29.72,10.0,WNW,4.6,-,N/A,,Overcast,300,2012-10-06 23:35:00
7:55 PM,53.6,46.4,77,29.73,10.0,NW,4.6,-,N/A,,Overcast,310,2012-10-06 23:55:00
8:15 PM,53.6,44.6,72,29.73,10.0,NNW,5.8,-,N/A,,Overcast,330,2012-10-07 00:15:00
8:35 PM,53.6,44.6,72,29.74,10.0,NW,5.8,-,N/A,,Overcast,320,2012-10-07 00:35:00
8:55 PM,53.6,44.6,72,29.75,10.0,NNW,4.6,-,N/A,,Overcast,330,2012-10-07 00:55:00
9:15 PM,51.8,42.8,71,29.76,10.0,NW,3.5,-,N/A,,Mostly Cloudy,320,2012-10-07 01:15:00
9:35 PM,51.8,42.8,71,29.77,10.0,NW,4.6,-,N/A,,Partly Cloudy,320,2012-10-07 01:35:00
9:55 PM,50.0,42.8,76,29.78,10.0,NNW,4.6,-,N/A,,Mostly Cloudy,330,2012-10-07 01:55:00
10:15 PM,50.0,42.8,76,29.78,10.0,Calm,Calm,-,N/A,,Scattered Clouds,0,2012-10-07 02:15:00
10:35 PM,46.4,42.8,87,29.79,10.0,WNW,3.5,-,N/A,,Clear,290,2012-10-07 02:35:00
10:55 PM,44.6,42.8,93,29.80,10.0,WNW,4.6,-,N/A,,Clear,300,2012-10-07 02:55:00
11:15 PM,44.6,42.8,93,29.80,10.0,WNW,4.6,-,N/A,,Clear,300,2012-10-07 03:15:00
11:35 PM,46.4,42.8,87,29.81,10.0,Calm,Calm,-,N/A,,Clear,0,2012-10-07 03:35:00
11:55 PM,44.6,41.0,87,29.81,10.0,Calm,Calm,-,N/A,,Clear,0,2012-10-07 03:55:00